Terminal Aerodrome Forecast
Issued by NWS Topeka, KS

Home | Current Version | Previous Version | Text Only | Print | Product List | Glossary Off
Versions: 1 2 3 4 5 6 7 8 9 10 11 12 13 14 15 16 17 18 19 20 21 22 23

000
FTUS43 KTOP 141348 AAB
TAFTOP
TAF AMD
KTOP 141348Z 1414/1512 16005KT 6SM -SN OVC040
      TEMPO 1414/1415 1SM -SN BKN015
     FM141500 17005KT P6SM BKN040
     FM142000 22005KT P6SM FEW040
     FM150400 25004KT 2SM -SN BKN030=

USA.gov is the U.S. government's official web portal to all federal, state and local government web resources and services.